Terminal Aerodrome Forecast
Issued by NWS

Current Version | Previous Version | Text Only | Print | Product List | Glossary On
Versions: 1 2 3 4 5 6 7 8 9 10 11 12 13 14 15 16 17 18 19 20 21 22 23 24 25 26 27 28 29 30 31 32 33 34 35 36 37 38 39 40 41 42 43 44 45 46 47 48 49 50
000
FTAK31 PANC 041258 AAB
TAFADL
TAF AMD
PADL 041258Z 0413/0512 VRB03KT 4SM BR SCT002 OVC012
      TEMPO 0413/0416 1SM BR BKN007
     FM042100 21005KT P6SM SCT002 BKN020 OVC120
     FM050900 22004KT P6SM VCSH BKN012 OVC022
      AMD LTD TO CLD VIS AND WIND TIL 041600=

USA.gov is the U.S. government's official web portal to all federal, state and local government web resources and services.